sensor_id;sensor_type;location;lat;lon;timestamp;pressure;altitude;pressure_sealevel;temperature;humidity
10658;BME280;5377;43.276;26.930;2023-06-26T00:00:01;98636.91;;;21.99;100.00
10658;BME280;5377;43.276;26.930;2023-06-26T00:02:30;98629.78;;;22.03;100.00
10658;BME280;5377;43.276;26.930;2023-06-26T00:04:58;98623.97;;;22.10;100.00
10658;BME280;5377;43.276;26.930;2023-06-26T00:07:28;98625.09;;;22.09;100.00
10658;BME280;5377;43.276;26.930;2023-06-26T00:09:56;98632.69;;;22.12;100.00
10658;BME280;5377;43.276;26.930;2023-06-26T00:12:24;98625.59;;;22.11;100.00
10658;BME280;5377;43.276;26.930;2023-06-26T00:14:50;98621.25;;;22.10;100.00
10658;BME280;5377;43.276;26.930;2023-06-26T00:17:17;98628.03;;;22.13;100.00
10658;BME280;5377;43.276;26.930;2023-06-26T00:19:44;98624.03;;;22.05;100.00
10658;BME280;5377;43.276;26.930;2023-06-26T00:22:11;98625.66;;;22.06;100.00
10658;BME280;5377;43.276;26.930;2023-06-26T00:24:38;98627.59;;;22.00;100.00
10658;BME280;5377;43.276;26.930;2023-06-26T00:27:06;98608.59;;;21.95;100.00
10658;BME280;5377;43.276;26.930;2023-06-26T00:29:33;98614.50;;;22.02;100.00
10658;BME280;5377;43.276;26.930;2023-06-26T00:32:00;98615.44;;;21.93;100.00
10658;BME280;5377;43.276;26.930;2023-06-26T00:34:27;98609.84;;;22.03;100.00
10658;BME280;5377;43.276;26.930;2023-06-26T00:36:54;98606.38;;;21.97;100.00
10658;BME280;5377;43.276;26.930;2023-06-26T00:39:20;98606.09;;;21.99;100.00
10658;BME280;5377;43.276;26.930;2023-06-26T00:41:47;98610.69;;;22.03;100.00
10658;BME280;5377;43.276;26.930;2023-06-26T00:44:15;98601.16;;;22.01;100.00
10658;BME280;5377;43.276;26.930;2023-06-26T00:46:42;98595.97;;;22.04;100.00
10658;BME280;5377;43.276;26.930;2023-06-26T00:49:09;98600.81;;;22.07;100.00
10658;BME280;5377;43.276;26.930;2023-06-26T00:51:36;98591.84;;;22.07;100.00
10658;BME280;5377;43.276;26.930;2023-06-26T00:54:03;98600.25;;;22.10;100.00
10658;BME280;5377;43.276;26.930;2023-06-26T00:56:31;98595.22;;;22.23;100.00
10658;BME280;5377;43.276;26.930;2023-06-26T00:58:58;98590.50;;;22.28;100.00
10658;BME280;5377;43.276;26.930;2023-06-26T01:01:26;98595.44;;;22.26;100.00
10658;BME280;5377;43.276;26.930;2023-06-26T01:03:53;98594.31;;;22.27;100.00
10658;BME280;5377;43.276;26.930;2023-06-26T01:06:22;98594.31;;;22.27;100.00
10658;BME280;5377;43.276;26.930;2023-06-26T01:08:51;98592.94;;;22.30;100.00
10658;BME280;5377;43.276;26.930;2023-06-26T01:11:18;98597.00;;;22.32;100.00
10658;BME280;5377;43.276;26.930;2023-06-26T01:13:45;98600.06;;;22.26;100.00
10658;BME280;5377;43.276;26.930;2023-06-26T01:16:13;98588.88;;;22.27;100.00
10658;BME280;5377;43.276;26.930;2023-06-26T01:18:46;98584.22;;;22.28;100.00
10658;BME280;5377;43.276;26.930;2023-06-26T01:21:14;98595.94;;;22.28;100.00
10658;BME280;5377;43.276;26.930;2023-06-26T01:23:49;98599.31;;;22.20;100.00
10658;BME280;5377;43.276;26.930;2023-06-26T01:26:21;98585.72;;;22.15;100.00
10658;BME280;5377;43.276;26.930;2023-06-26T01:28:50;98593.16;;;22.09;100.00
10658;BME280;5377;43.276;26.930;2023-06-26T01:31:17;98594.78;;;22.10;100.00
10658;BME280;5377;43.276;26.930;2023-06-26T01:33:46;98596.78;;;22.05;100.00
10658;BME280;5377;43.276;26.930;2023-06-26T01:36:13;98596.13;;;22.13;100.00
10658;BME280;5377;43.276;26.930;2023-06-26T01:38:40;98589.56;;;22.14;100.00
10658;BME280;5377;43.276;26.930;2023-06-26T01:41:07;98583.53;;;22.17;100.00
10658;BME280;5377;43.276;26.930;2023-06-26T01:43:43;98581.84;;;22.21;100.00
10658;BME280;5377;43.276;26.930;2023-06-26T01:46:29;98574.72;;;22.25;100.00
10658;BME280;5377;43.276;26.930;2023-06-26T01:49:03;98569.69;;;22.32;100.00
10658;BME280;5377;43.276;26.930;2023-06-26T01:51:36;98576.78;;;22.33;100.00
10658;BME280;5377;43.276;26.930;2023-06-26T01:54:08;98577.44;;;22.25;100.00
10658;BME280;5377;43.276;26.930;2023-06-26T01:56:38;98576.81;;;22.09;100.00
10658;BME280;5377;43.276;26.930;2023-06-26T01:59:08;98580.84;;;22.12;100.00
10658;BME280;5377;43.276;26.930;2023-06-26T02:01:36;98585.50;;;22.12;100.00
10658;BME280;5377;43.276;26.930;2023-06-26T02:04:03;98587.13;;;22.13;100.00
10658;BME280;5377;43.276;26.930;2023-06-26T02:06:30;98572.03;;;22.20;100.00
10658;BME280;5377;43.276;26.930;2023-06-26T02:08:57;98575.81;;;22.24;100.00
10658;BME280;5377;43.276;26.930;2023-06-26T02:11:24;98573.09;;;22.24;100.00
10658;BME280;5377;43.276;26.930;2023-06-26T02:13:50;98575.00;;;22.24;100.00
10658;BME280;5377;43.276;26.930;2023-06-26T02:16:19;98572.28;;;22.24;100.00
10658;BME280;5377;43.276;26.930;2023-06-26T02:18:46;98571.78;;;22.17;100.00
10658;BME280;5377;43.276;26.930;2023-06-26T02:21:13;98574.72;;;22.25;100.00
10658;BME280;5377;43.276;26.930;2023-06-26T02:23:40;98573.38;;;22.23;100.00
10658;BME280;5377;43.276;26.930;2023-06-26T02:26:06;98568.22;;;22.21;100.00
10658;BME280;5377;43.276;26.930;2023-06-26T02:28:33;98564.38;;;22.22;100.00
10658;BME280;5377;43.276;26.930;2023-06-26T02:31:00;98562.19;;;22.24;100.00
10658;BME280;5377;43.276;26.930;2023-06-26T02:33:28;98557.25;;;22.26;100.00
10658;BME280;5377;43.276;26.930;2023-06-26T02:35:55;98559.66;;;22.28;100.00
10658;BME280;5377;43.276;26.930;2023-06-26T02:38:22;98560.78;;;22.27;100.00
10658;BME280;5377;43.276;26.930;2023-06-26T02:40:49;98561.28;;;22.29;100.00
10658;BME280;5377;43.276;26.930;2023-06-26T02:43:16;98564.31;;;22.27;100.00
10658;BME280;5377;43.276;26.930;2023-06-26T02:45:42;98556.19;;;22.22;100.00
10658;BME280;5377;43.276;26.930;2023-06-26T02:48:09;98557.56;;;22.20;100.00
10658;BME280;5377;43.276;26.930;2023-06-26T02:50:37;98561.06;;;22.25;100.00
10658;BME280;5377;43.276;26.930;2023-06-26T02:53:04;98561.38;;;22.24;100.00
10658;BME280;5377;43.276;26.930;2023-06-26T02:55:31;98545.09;;;22.14;100.00
10658;BME280;5377;43.276;26.930;2023-06-26T02:57:58;98555.22;;;22.13;100.00
10658;BME280;5377;43.276;26.930;2023-06-26T03:00:25;98555.31;;;22.03;100.00
10658;BME280;5377;43.276;26.930;2023-06-26T03:02:52;98561.03;;;22.06;100.00
10658;BME280;5377;43.276;26.930;2023-06-26T03:05:18;98556.59;;;22.10;100.00
10658;BME280;5377;43.276;26.930;2023-06-26T03:07:47;98561.25;;;22.10;100.00
10658;BME280;5377;43.276;26.930;2023-06-26T03:10:13;98560.94;;;22.12;100.00
10658;BME280;5377;43.276;26.930;2023-06-26T03:12:40;98557.41;;;22.11;100.00
10658;BME280;5377;43.276;26.930;2023-06-26T03:15:08;98559.44;;;22.00;100.00
10658;BME280;5377;43.276;26.930;2023-06-26T03:17:36;98567.16;;;21.93;100.00
10658;BME280;5377;43.276;26.930;2023-06-26T03:20:04;98574.97;;;22.00;100.00
10658;BME280;5377;43.276;26.930;2023-06-26T03:22:32;98577.72;;;22.00;100.00
10658;BME280;5377;43.276;26.930;2023-06-26T03:25:01;98567.97;;;21.94;100.00
10658;BME280;5377;43.276;26.930;2023-06-26T03:27:28;98574.81;;;21.91;100.00
10658;BME280;5377;43.276;26.930;2023-06-26T03:29:55;98574.38;;;21.79;100.00
10658;BME280;5377;43.276;26.930;2023-06-26T03:32:22;98576.88;;;21.75;100.00
10658;BME280;5377;43.276;26.930;2023-06-26T03:34:49;98580.31;;;21.62;100.00
10658;BME280;5377;43.276;26.930;2023-06-26T03:37:15;98577.41;;;21.48;100.00
10658;BME280;5377;43.276;26.930;2023-06-26T03:39:42;98587.28;;;21.44;100.00
10658;BME280;5377;43.276;26.930;2023-06-26T03:42:10;98594.44;;;21.35;100.00
10658;BME280;5377;43.276;26.930;2023-06-26T03:44:37;98598.56;;;21.33;100.00
10658;BME280;5377;43.276;26.930;2023-06-26T03:47:04;98596.88;;;21.37;100.00
10658;BME280;5377;43.276;26.930;2023-06-26T03:49:31;98599.94;;;21.30;100.00
10658;BME280;5377;43.276;26.930;2023-06-26T03:51:58;98606.97;;;21.36;100.00
10658;BME280;5377;43.276;26.930;2023-06-26T03:54:25;98602.03;;;21.38;100.00
10658;BME280;5377;43.276;26.930;2023-06-26T03:56:52;98600.72;;;21.36;100.00
10658;BME280;5377;43.276;26.930;2023-06-26T03:59:20;98608.94;;;21.31;100.00
10658;BME280;5377;43.276;26.930;2023-06-26T04:01:47;98600.72;;;21.36;100.00
10658;BME280;5377;43.276;26.930;2023-06-26T04:04:13;98610.84;;;21.30;100.00
10658;BME280;5377;43.276;26.930;2023-06-26T04:06:40;98611.66;;;21.31;100.00
10658;BME280;5377;43.276;26.930;2023-06-26T04:09:07;98600.47;;;21.32;100.00
10658;BME280;5377;43.276;26.930;2023-06-26T04:11:34;98604.06;;;21.28;100.00
10658;BME280;5377;43.276;26.930;2023-06-26T04:14:01;98598.59;;;21.28;100.00
10658;BME280;5377;43.276;26.930;2023-06-26T04:16:29;98595.34;;;21.26;100.00
10658;BME280;5377;43.276;26.930;2023-06-26T04:18:56;98591.28;;;21.23;100.00
10658;BME280;5377;43.276;26.930;2023-06-26T04:21:23;98591.53;;;21.27;100.00
10658;BME280;5377;43.276;26.930;2023-06-26T04:23:51;98594.03;;;21.23;100.00
10658;BME280;5377;43.276;26.930;2023-06-26T04:26:17;98593.34;;;21.36;100.00
10658;BME280;5377;43.276;26.930;2023-06-26T04:28:44;98599.38;;;21.33;100.00
10658;BME280;5377;43.276;26.930;2023-06-26T04:31:11;98598.56;;;21.33;100.00
10658;BME280;5377;43.276;26.930;2023-06-26T04:33:39;98589.19;;;21.44;100.00
10658;BME280;5377;43.276;26.930;2023-06-26T04:36:06;98586.97;;;21.46;100.00
10658;BME280;5377;43.276;26.930;2023-06-26T04:38:33;98596.47;;;21.54;100.00
10658;BME280;5377;43.276;26.930;2023-06-26T04:41:01;98608.44;;;21.58;100.00
10658;BME280;5377;43.276;26.930;2023-06-26T04:43:28;98593.47;;;21.55;100.00
10658;BME280;5377;43.276;26.930;2023-06-26T04:45:54;98595.13;;;21.51;100.00
10658;BME280;5377;43.276;26.930;2023-06-26T04:48:21;98603.63;;;21.73;100.00
10658;BME280;5377;43.276;26.930;2023-06-26T04:50:49;98598.13;;;21.78;100.00
10658;BME280;5377;43.276;26.930;2023-06-26T04:53:19;98597.75;;;21.90;100.00
10658;BME280;5377;43.276;26.930;2023-06-26T04:55:46;98596.69;;;21.86;100.00
10658;BME280;5377;43.276;26.930;2023-06-26T04:58:13;98597.50;;;21.87;100.00
10658;BME280;5377;43.276;26.930;2023-06-26T05:00:40;98596.56;;;21.96;100.00
10658;BME280;5377;43.276;26.930;2023-06-26T05:03:08;98602.50;;;22.03;100.00
10658;BME280;5377;43.276;26.930;2023-06-26T05:05:34;98595.53;;;22.16;100.00
10658;BME280;5377;43.276;26.930;2023-06-26T05:08:15;98591.81;;;22.31;100.00
10658;BME280;5377;43.276;26.930;2023-06-26T05:10:42;98591.00;;;22.30;100.00
10658;BME280;5377;43.276;26.930;2023-06-26T05:13:09;98604.44;;;22.46;100.00
10658;BME280;5377;43.276;26.930;2023-06-26T05:15:36;98597.50;;;22.53;100.00
10658;BME280;5377;43.276;26.930;2023-06-26T05:18:03;98594.97;;;22.62;100.00
10658;BME280;5377;43.276;26.930;2023-06-26T05:20:31;98600.94;;;22.64;100.00
10658;BME280;5377;43.276;26.930;2023-06-26T05:22:58;98602.31;;;22.42;100.00
10658;BME280;5377;43.276;26.930;2023-06-26T05:25:26;98603.53;;;22.55;100.00
10658;BME280;5377;43.276;26.930;2023-06-26T05:27:55;98601.22;;;22.62;100.00
10658;BME280;5377;43.276;26.930;2023-06-26T05:30:22;98602.63;;;22.60;100.00
10658;BME280;5377;43.276;26.930;2023-06-26T05:32:51;98597.94;;;22.84;100.00
10658;BME280;5377;43.276;26.930;2023-06-26T05:35:20;98597.34;;;23.06;100.00
10658;BME280;5377;43.276;26.930;2023-06-26T05:37:48;98604.03;;;23.32;100.00
10658;BME280;5377;43.276;26.930;2023-06-26T05:40:17;98592.22;;;23.51;100.00
10658;BME280;5377;43.276;26.930;2023-06-26T05:42:47;98588.53;;;23.60;100.00
10658;BME280;5377;43.276;26.930;2023-06-26T05:45:14;98601.31;;;23.79;100.00
10658;BME280;5377;43.276;26.930;2023-06-26T05:47:41;98595.16;;;23.54;100.00
10658;BME280;5377;43.276;26.930;2023-06-26T05:50:09;98598.78;;;23.50;100.00
10658;BME280;5377;43.276;26.930;2023-06-26T05:52:37;98597.78;;;23.46;100.00
10658;BME280;5377;43.276;26.930;2023-06-26T05:55:05;98607.56;;;23.33;100.00
10658;BME280;5377;43.276;26.930;2023-06-26T05:57:32;98606.66;;;23.38;100.00
10658;BME280;5377;43.276;26.930;2023-06-26T06:00:02;98605.88;;;23.18;100.00
10658;BME280;5377;43.276;26.930;2023-06-26T06:02:31;98609.28;;;23.29;100.00
10658;BME280;5377;43.276;26.930;2023-06-26T06:04:58;98609.56;;;23.27;100.00
10658;BME280;5377;43.276;26.930;2023-06-26T06:07:24;98617.53;;;23.24;100.00
10658;BME280;5377;43.276;26.930;2023-06-26T06:09:51;98615.75;;;23.33;100.00
10658;BME280;5377;43.276;26.930;2023-06-26T06:12:18;98621.22;;;23.33;100.00
10658;BME280;5377;43.276;26.930;2023-06-26T06:14:45;98626.19;;;23.31;100.00
10658;BME280;5377;43.276;26.930;2023-06-26T06:17:13;98625.47;;;23.25;100.00
10658;BME280;5377;43.276;26.930;2023-06-26T06:19:40;98631.59;;;22.98;100.00
10658;BME280;5377;43.276;26.930;2023-06-26T06:22:06;98626.03;;;23.22;100.00
10658;BME280;5377;43.276;26.930;2023-06-26T06:24:33;98618.59;;;23.28;100.00
10658;BME280;5377;43.276;26.930;2023-06-26T06:27:00;98623.34;;;23.36;100.00
10658;BME280;5377;43.276;26.930;2023-06-26T06:29:27;98618.63;;;23.42;100.00
10658;BME280;5377;43.276;26.930;2023-06-26T06:31:54;98623.47;;;23.63;100.00
10658;BME280;5377;43.276;26.930;2023-06-26T06:34:22;98626.34;;;23.86;100.00
10658;BME280;5377;43.276;26.930;2023-06-26T06:36:49;98626.22;;;23.91;100.00
10658;BME280;5377;43.276;26.930;2023-06-26T06:39:16;98622.22;;;24.02;100.00
10658;BME280;5377;43.276;26.930;2023-06-26T06:41:42;98633.16;;;24.02;100.00
10658;BME280;5377;43.276;26.930;2023-06-26T06:44:09;98632.94;;;24.12;100.00
10658;BME280;5377;43.276;26.930;2023-06-26T06:46:36;98637.50;;;24.03;100.00
10658;BME280;5377;43.276;26.930;2023-06-26T06:49:03;98635.75;;;23.93;100.00
10658;BME280;5377;43.276;26.930;2023-06-26T06:51:31;98641.47;;;23.97;100.00
10658;BME280;5377;43.276;26.930;2023-06-26T06:53:58;98637.81;;;24.15;100.00
10658;BME280;5377;43.276;26.930;2023-06-26T06:56:24;98638.22;;;24.09;100.00
10658;BME280;5377;43.276;26.930;2023-06-26T06:58:51;98640.44;;;24.20;100.00
10658;BME280;5377;43.276;26.930;2023-06-26T07:01:18;98632.91;;;24.31;100.00
10658;BME280;5377;43.276;26.930;2023-06-26T07:03:45;98635.84;;;24.35;100.00
10658;BME280;5377;43.276;26.930;2023-06-26T07:06:12;98636.44;;;24.32;100.00
10658;BME280;5377;43.276;26.930;2023-06-26T07:08:40;98640.38;;;24.53;100.00
10658;BME280;5377;43.276;26.930;2023-06-26T07:11:07;98627.88;;;24.74;100.00
10658;BME280;5377;43.276;26.930;2023-06-26T07:13:34;98628.00;;;24.92;99.66
10658;BME280;5377;43.276;26.930;2023-06-26T07:16:00;98626.78;;;24.98;97.45
10658;BME280;5377;43.276;26.930;2023-06-26T07:18:27;98630.69;;;25.19;95.76
10658;BME280;5377;43.276;26.930;2023-06-26T07:20:54;98633.88;;;25.12;95.59
10658;BME280;5377;43.276;26.930;2023-06-26T07:23:21;98633.41;;;25.33;94.54
10658;BME280;5377;43.276;26.930;2023-06-26T07:25:49;98633.69;;;25.31;91.87
10658;BME280;5377;43.276;26.930;2023-06-26T07:28:16;98629.31;;;25.53;91.62
10658;BME280;5377;43.276;26.930;2023-06-26T07:30:43;98629.97;;;25.49;91.12
10658;BME280;5377;43.276;26.930;2023-06-26T07:33:09;98636.91;;;25.69;89.65
10658;BME280;5377;43.276;26.930;2023-06-26T07:35:36;98641.34;;;25.88;88.68
10658;BME280;5377;43.276;26.930;2023-06-26T07:38:03;98644.25;;;25.91;86.93
10658;BME280;5377;43.276;26.930;2023-06-26T07:40:30;98635.72;;;25.93;85.21
10658;BME280;5377;43.276;26.930;2023-06-26T07:42:58;98645.31;;;26.04;85.22
10658;BME280;5377;43.276;26.930;2023-06-26T07:45:25;98651.47;;;26.09;85.88
10658;BME280;5377;43.276;26.930;2023-06-26T07:47:51;98647.84;;;26.00;85.28
10658;BME280;5377;43.276;26.930;2023-06-26T07:50:18;98646.44;;;26.03;83.38
10658;BME280;5377;43.276;26.930;2023-06-26T07:52:48;98642.28;;;25.83;83.46
10658;BME280;5377;43.276;26.930;2023-06-26T07:55:15;98644.03;;;25.79;85.01
10658;BME280;5377;43.276;26.930;2023-06-26T07:57:41;98654.13;;;25.92;84.25
10658;BME280;5377;43.276;26.930;2023-06-26T08:00:11;98648.72;;;25.78;84.41
10658;BME280;5377;43.276;26.930;2023-06-26T08:02:38;98650.22;;;25.85;84.77
10658;BME280;5377;43.276;26.930;2023-06-26T08:05:05;98648.22;;;25.76;85.69
10658;BME280;5377;43.276;26.930;2023-06-26T08:07:32;98654.25;;;25.87;85.52
10658;BME280;5377;43.276;26.930;2023-06-26T08:09:58;98648.47;;;25.97;81.97
10658;BME280;5377;43.276;26.930;2023-06-26T08:12:25;98645.97;;;25.78;82.18
10658;BME280;5377;43.276;26.930;2023-06-26T08:14:52;98640.63;;;25.73;82.48
10658;BME280;5377;43.276;26.930;2023-06-26T08:17:20;98639.97;;;25.68;82.69
10658;BME280;5377;43.276;26.930;2023-06-26T08:19:47;98639.72;;;25.64;83.77
10658;BME280;5377;43.276;26.930;2023-06-26T08:22:14;98641.16;;;25.62;83.76
10658;BME280;5377;43.276;26.930;2023-06-26T08:24:41;98634.63;;;25.49;84.52
10658;BME280;5377;43.276;26.930;2023-06-26T08:27:08;98632.94;;;25.84;83.90
10658;BME280;5377;43.276;26.930;2023-06-26T08:29:35;98625.53;;;25.93;83.16
10658;BME280;5377;43.276;26.930;2023-06-26T08:32:01;98624.03;;;26.09;82.31
10658;BME280;5377;43.276;26.930;2023-06-26T08:34:30;98621.09;;;26.06;81.11
10658;BME280;5377;43.276;26.930;2023-06-26T08:36:56;98627.31;;;26.29;81.50
10658;BME280;5377;43.276;26.930;2023-06-26T08:39:24;98625.38;;;26.29;78.45
10658;BME280;5377;43.276;26.930;2023-06-26T08:41:50;98628.75;;;26.26;78.09
10658;BME280;5377;43.276;26.930;2023-06-26T08:44:17;98635.16;;;26.44;79.92
10658;BME280;5377;43.276;26.930;2023-06-26T08:46:50;98631.44;;;26.49;77.97
10658;BME280;5377;43.276;26.930;2023-06-26T08:49:20;98633.25;;;26.22;78.15
10658;BME280;5377;43.276;26.930;2023-06-26T08:51:52;98631.19;;;26.28;78.53
10658;BME280;5377;43.276;26.930;2023-06-26T08:54:27;98624.88;;;26.27;78.18
10658;BME280;5377;43.276;26.930;2023-06-26T08:56:56;98631.59;;;26.52;77.29
10658;BME280;5377;43.276;26.930;2023-06-26T08:59:24;98626.13;;;26.52;78.80
10658;BME280;5377;43.276;26.930;2023-06-26T09:01:51;98630.16;;;26.63;77.03
10658;BME280;5377;43.276;26.930;2023-06-26T09:04:18;98623.38;;;26.69;77.60
10658;BME280;5377;43.276;26.930;2023-06-26T09:06:45;98627.75;;;26.70;77.15
10658;BME280;5377;43.276;26.930;2023-06-26T09:09:13;98630.34;;;26.67;75.67
10658;BME280;5377;43.276;26.930;2023-06-26T09:11:40;98627.13;;;26.73;75.04
10658;BME280;5377;43.276;26.930;2023-06-26T09:14:07;98612.88;;;26.54;74.95
10658;BME280;5377;43.276;26.930;2023-06-26T09:16:39;98619.06;;;26.86;76.08
10658;BME280;5377;43.276;26.930;2023-06-26T09:19:09;98625.38;;;26.86;73.95
10658;BME280;5377;43.276;26.930;2023-06-26T09:21:38;98628.75;;;26.92;74.96
10658;BME280;5377;43.276;26.930;2023-06-26T09:24:06;98624.59;;;27.20;71.62
10658;BME280;5377;43.276;26.930;2023-06-26T09:26:35;98629.13;;;27.25;69.64
10658;BME280;5377;43.276;26.930;2023-06-26T09:29:02;98628.44;;;27.37;69.41
10658;BME280;5377;43.276;26.930;2023-06-26T09:31:29;98634.09;;;27.40;68.91
10658;BME280;5377;43.276;26.930;2023-06-26T09:33:58;98628.94;;;27.47;68.71
10658;BME280;5377;43.276;26.930;2023-06-26T09:36:28;98626.03;;;27.26;68.15
10658;BME280;5377;43.276;26.930;2023-06-26T09:38:59;98637.66;;;27.41;67.92
10658;BME280;5377;43.276;26.930;2023-06-26T09:41:26;98630.22;;;27.76;67.68
10658;BME280;5377;43.276;26.930;2023-06-26T09:43:54;98625.41;;;28.11;66.96
10658;BME280;5377;43.276;26.930;2023-06-26T09:46:27;98629.13;;;28.44;64.94
10658;BME280;5377;43.276;26.930;2023-06-26T09:48:58;98627.00;;;28.50;64.22
10658;BME280;5377;43.276;26.930;2023-06-26T09:51:25;98638.59;;;28.35;64.62
10658;BME280;5377;43.276;26.930;2023-06-26T09:53:52;98626.88;;;28.46;63.60
10658;BME280;5377;43.276;26.930;2023-06-26T09:56:19;98632.38;;;28.46;62.11
10658;BME280;5377;43.276;26.930;2023-06-26T09:58:47;98613.44;;;28.66;61.44
10658;BME280;5377;43.276;26.930;2023-06-26T10:01:17;98629.97;;;28.95;61.37
10658;BME280;5377;43.276;26.930;2023-06-26T10:03:43;98630.84;;;28.87;58.46
10658;BME280;5377;43.276;26.930;2023-06-26T10:06:11;98618.22;;;28.56;58.04
10658;BME280;5377;43.276;26.930;2023-06-26T10:08:39;98623.53;;;28.91;59.03
10658;BME280;5377;43.276;26.930;2023-06-26T10:11:08;98617.66;;;29.13;57.29
10658;BME280;5377;43.276;26.930;2023-06-26T10:13:39;98620.94;;;29.48;56.69
10658;BME280;5377;43.276;26.930;2023-06-26T10:16:11;98610.88;;;29.65;55.90
10658;BME280;5377;43.276;26.930;2023-06-26T10:18:40;98613.41;;;29.70;55.61
10658;BME280;5377;43.276;26.930;2023-06-26T10:21:08;98619.06;;;29.73;54.94
10658;BME280;5377;43.276;26.930;2023-06-26T10:23:39;98605.94;;;29.83;53.68
10658;BME280;5377;43.276;26.930;2023-06-26T10:26:08;98620.53;;;29.38;54.50
10658;BME280;5377;43.276;26.930;2023-06-26T10:28:37;98614.13;;;29.79;55.00
10658;BME280;5377;43.276;26.930;2023-06-26T10:31:06;98609.72;;;30.23;54.85
10658;BME280;5377;43.276;26.930;2023-06-26T10:33:35;98595.44;;;30.46;53.09
10658;BME280;5377;43.276;26.930;2023-06-26T10:36:16;98604.06;;;30.68;52.23
10658;BME280;5377;43.276;26.930;2023-06-26T10:38:51;98609.88;;;31.03;51.23
10658;BME280;5377;43.276;26.930;2023-06-26T10:41:22;98600.03;;;31.18;50.22
10658;BME280;5377;43.276;26.930;2023-06-26T10:43:50;98599.59;;;31.04;51.14
10658;BME280;5377;43.276;26.930;2023-06-26T10:46:21;98598.97;;;31.51;49.81
10658;BME280;5377;43.276;26.930;2023-06-26T10:48:57;98598.53;;;31.21;48.66
10658;BME280;5377;43.276;26.930;2023-06-26T10:51:27;98600.16;;;31.10;50.04
10658;BME280;5377;43.276;26.930;2023-06-26T10:53:54;98592.09;;;31.04;48.99
10658;BME280;5377;43.276;26.930;2023-06-26T10:56:21;98584.69;;;31.49;49.75
10658;BME280;5377;43.276;26.930;2023-06-26T10:59:17;98584.00;;;31.68;47.79
10658;BME280;5377;43.276;26.930;2023-06-26T11:01:45;98588.22;;;31.33;48.21
10658;BME280;5377;43.276;26.930;2023-06-26T11:04:13;98588.63;;;31.08;48.75
10658;BME280;5377;43.276;26.930;2023-06-26T11:06:46;98577.88;;;30.90;48.17
10658;BME280;5377;43.276;26.930;2023-06-26T11:09:17;98590.38;;;30.60;48.58
10658;BME280;5377;43.276;26.930;2023-06-26T11:11:57;98589.25;;;30.24;50.02
10658;BME280;5377;43.276;26.930;2023-06-26T11:14:33;98591.25;;;29.91;50.21
10658;BME280;5377;43.276;26.930;2023-06-26T11:17:03;98582.19;;;30.02;50.58
10658;BME280;5377;43.276;26.930;2023-06-26T11:19:31;98591.34;;;29.82;51.90
10658;BME280;5377;43.276;26.930;2023-06-26T11:22:04;98584.81;;;29.87;51.81
10658;BME280;5377;43.276;26.930;2023-06-26T11:24:33;98586.16;;;29.68;51.37
10658;BME280;5377;43.276;26.930;2023-06-26T11:27:01;98589.34;;;29.58;50.06
10658;BME280;5377;43.276;26.930;2023-06-26T11:29:29;98586.53;;;29.46;50.60
10658;BME280;5377;43.276;26.930;2023-06-26T11:32:00;98580.94;;;29.22;51.37
10658;BME280;5377;43.276;26.930;2023-06-26T11:34:31;98580.69;;;29.14;53.22
10658;BME280;5377;43.276;26.930;2023-06-26T11:36:58;98586.47;;;29.01;54.12
10658;BME280;5377;43.276;26.930;2023-06-26T11:39:30;98571.16;;;29.24;53.66
10658;BME280;5377;43.276;26.930;2023-06-26T11:41:58;98573.25;;;29.27;53.25
10658;BME280;5377;43.276;26.930;2023-06-26T11:44:29;98575.63;;;29.16;54.06
10658;BME280;5377;43.276;26.930;2023-06-26T11:46:56;98569.72;;;29.39;54.77
10658;BME280;5377;43.276;26.930;2023-06-26T11:49:24;98568.47;;;29.94;53.19
10658;BME280;5377;43.276;26.930;2023-06-26T11:51:52;98567.25;;;30.28;51.32
10658;BME280;5377;43.276;26.930;2023-06-26T11:54:25;98568.94;;;30.45;50.38
10658;BME280;5377;43.276;26.930;2023-06-26T11:56:58;98557.94;;;30.85;49.97
10658;BME280;5377;43.276;26.930;2023-06-26T11:59:33;98564.88;;;31.19;47.80
10658;BME280;5377;43.276;26.930;2023-06-26T12:02:00;98556.13;;;31.60;45.09
10658;BME280;5377;43.276;26.930;2023-06-26T12:04:27;98558.69;;;31.97;43.89
10658;BME280;5377;43.276;26.930;2023-06-26T12:06:55;98555.53;;;31.83;44.05
10658;BME280;5377;43.276;26.930;2023-06-26T12:09:23;98554.53;;;31.91;43.86
10658;BME280;5377;43.276;26.930;2023-06-26T12:11:53;98550.44;;;32.01;43.82
10658;BME280;5377;43.276;26.930;2023-06-26T12:14:23;98550.56;;;32.23;43.17
10658;BME280;5377;43.276;26.930;2023-06-26T12:16:54;98554.47;;;32.03;43.64
10658;BME280;5377;43.276;26.930;2023-06-26T12:19:24;98542.47;;;31.83;43.25
10658;BME280;5377;43.276;26.930;2023-06-26T12:21:52;98548.66;;;31.33;42.67
10658;BME280;5377;43.276;26.930;2023-06-26T12:24:22;98548.38;;;30.82;43.51
10658;BME280;5377;43.276;26.930;2023-06-26T12:26:53;98544.78;;;30.94;43.95
10658;BME280;5377;43.276;26.930;2023-06-26T12:29:32;98552.69;;;31.08;44.14
10658;BME280;5377;43.276;26.930;2023-06-26T12:31:59;98556.75;;;30.98;44.83
10658;BME280;5377;43.276;26.930;2023-06-26T12:34:27;98553.25;;;30.73;45.28
10658;BME280;5377;43.276;26.930;2023-06-26T12:37:00;98563.41;;;30.45;45.18
10658;BME280;5377;43.276;26.930;2023-06-26T12:39:27;98561.22;;;30.01;46.79
10658;BME280;5377;43.276;26.930;2023-06-26T12:41:57;98566.66;;;30.34;46.21
10658;BME280;5377;43.276;26.930;2023-06-26T12:44:27;98552.72;;;30.95;44.17
10658;BME280;5377;43.276;26.930;2023-06-26T12:46:56;98559.09;;;31.24;43.73
10658;BME280;5377;43.276;26.930;2023-06-26T12:49:34;98553.56;;;31.24;44.33
10658;BME280;5377;43.276;26.930;2023-06-26T12:52:03;98564.78;;;30.51;44.77
10658;BME280;5377;43.276;26.930;2023-06-26T12:54:30;98555.84;;;30.94;44.83
10658;BME280;5377;43.276;26.930;2023-06-26T12:56:57;98555.75;;;31.46;43.91
10658;BME280;5377;43.276;26.930;2023-06-26T12:59:23;98545.66;;;31.38;43.91